Time;durP1;ratioP1;P1;durP2;ratioP2;P2;SDS_P1;SDS_P2;PMS_P1;PMS_P2;Temp;Humidity;BMP_temperature;BMP_pressure;BME280_temperature;BME280_humidity;BME280_pressure;Samples;Min_cycle;Max_cycle;Signal;HPM_P1;HPM_P2
2021/11/22 00:02:25;;;;;;;;;;;;;;;5.74;86.41;99416.75;4941651;29;19922;-83
2021/11/22 00:04:50;;;;;;;;;;;;;;;5.77;86.34;99422.78;4942466;29;19923;-88
2021/11/22 00:07:16;;;;;;;;;;;;;;;5.78;86.41;99428.94;4942091;29;20340;-87
2021/11/22 02:19:04;;;;;;;;;;;;;;;6.94;100.00;99528.06;5521858;23;19926;-83
2021/11/22 02:21:30;;;;;;;;;;;;;;;6.97;100.00;99533.25;4956698;28;19977;-82
2021/11/22 02:23:56;;;;;;;;;;;;;;;6.98;100.00;99524.44;4956140;28;19933;-82
2021/11/22 02:26:21;;;;;;;;;;;;;;;7.03;100.00;99528.63;4956273;28;20358;-86
2021/11/22 02:28:46;;;;;;;;;;;;;;;7.04;100.00;99526.88;4956781;28;19929;-82
2021/11/22 02:31:12;;;;;;;;;;;;;;;7.12;100.00;99534.53;4956101;29;19918;-82
2021/11/22 02:33:37;;;;;;;;;;;;;;;7.11;100.00;99535.44;4954918;28;20462;-83
2021/11/22 02:36:03;;;;;;;;;;;;;;;7.12;100.00;99539.81;4956430;28;19923;-83
2021/11/22 02:38:32;;;;;;;;;;;;;;;7.17;100.00;99545.78;4955853;28;19918;-82
2021/11/22 02:40:58;;;;;;;;;;;;;;;7.20;100.00;99537.78;4955937;28;19919;-86
2021/11/22 02:43:24;;;;;;;;;;;;;;;7.21;100.00;99542.13;4955827;28;20013;-84
2021/11/22 02:45:50;;;;;;;;;;;;;;;7.25;100.00;99547.25;4955149;28;20013;-83
2021/11/22 02:48:15;;;;;;;;;;;;;;;7.28;100.00;99543.66;4954379;28;19918;-87
2021/11/22 02:50:40;;;;;;;;;;;;;;;7.33;100.00;99554.03;4955842;28;19918;-87
2021/11/22 02:53:05;;;;;;;;;;;;;;;7.33;100.00;99549.63;4955963;28;19973;-82
2021/11/22 02:55:31;;;;;;;;;;;;;;;7.60;100.00;99545.19;4955678;28;20286;-92
2021/11/22 02:57:56;;;;;;;;;;;;;;;7.80;100.00;99546.25;4955661;29;20001;-83
2021/11/22 03:00:23;;;;;;;;;;;;;;;7.76;100.00;99548.16;4955404;28;19918;-83
2021/11/22 03:02:49;;;;;;;;;;;;;;;7.76;100.00;99550.78;4954072;28;20013;-82
2021/11/22 03:05:14;;;;;;;;;;;;;;;7.74;100.00;99555.28;4955535;28;20494;-82
2021/11/22 03:07:39;;;;;;;;;;;;;;;7.73;100.00;99555.31;4955386;28;19961;-82
2021/11/22 03:10:07;;;;;;;;;;;;;;;7.74;100.00;99552.63;4955492;28;20058;-89
2021/11/22 03:12:33;;;;;;;;;;;;;;;7.76;100.00;99558.72;4955293;28;19926;-84
2021/11/22 03:14:59;;;;;;;;;;;;;;;7.77;100.00;99563.06;4955287;28;20447;-82
2021/11/22 03:17:24;;;;;;;;;;;;;;;7.76;100.00;99557.84;4955230;28;20370;-89
2021/11/22 03:19:49;;;;;;;;;;;;;;;7.78;100.00;99559.50;4953819;28;19949;-89
2021/11/22 03:22:14;;;;;;;;;;;;;;;7.80;100.00;99556.81;4955061;28;19929;-82
2021/11/22 03:24:40;;;;;;;;;;;;;;;7.83;100.00;99556.72;4955086;28;20378;-83
2021/11/22 03:27:05;;;;;;;;;;;;;;;7.82;100.00;99565.56;4937825;29;19922;-89
2021/11/22 03:29:30;;;;;;;;;;;;;;;7.84;100.00;99568.16;4938299;28;19981;-85
2021/11/22 03:31:57;;;;;;;;;;;;;;;7.86;100.00;99566.31;4937702;29;19921;-85
2021/11/22 09:07:19;;;;;;;;;;;;;;;4.26;84.59;100039.59;5109840;23;19930;-85
2021/11/22 09:09:45;;;;;;;;;;;;;;;4.26;84.81;100042.22;4978287;28;19930;-82
2021/11/22 09:12:10;;;;;;;;;;;;;;;4.22;84.45;100043.16;4982288;28;19920;-87
2021/11/22 09:14:35;;;;;;;;;;;;;;;4.21;84.21;100038.81;4982703;28;20332;-85
2021/11/22 09:17:01;;;;;;;;;;;;;;;4.22;84.21;100045.78;4982856;28;19918;-86
2021/11/22 09:19:26;;;;;;;;;;;;;;;4.23;84.11;100051.03;4982760;28;19918;-82
2021/11/22 09:21:51;;;;;;;;;;;;;;;4.24;84.29;100051.88;4995386;28;19918;-88
2021/11/22 09:24:17;;;;;;;;;;;;;;;4.28;84.48;100049.19;4965637;28;20393;-86
2021/11/22 09:26:42;;;;;;;;;;;;;;;4.33;84.50;100057.00;4983121;28;19929;-89
2021/11/22 09:29:07;;;;;;;;;;;;;;;4.30;84.18;100063.16;4983623;28;20392;-91
2021/11/22 09:31:34;;;;;;;;;;;;;;;4.34;84.37;100066.59;4980600;28;19932;-88
2021/11/22 09:33:59;;;;;;;;;;;;;;;4.36;84.25;100070.09;4981728;28;19922;-82
2021/11/22 09:36:26;;;;;;;;;;;;;;;4.40;84.21;100074.41;4997215;28;19922;-82
2021/11/22 09:38:52;;;;;;;;;;;;;;;4.41;84.26;100072.66;4980162;28;19977;-86
2021/11/22 09:41:17;;;;;;;;;;;;;;;4.38;84.07;100081.44;4985000;28;19925;-85
2021/11/22 09:43:43;;;;;;;;;;;;;;;4.41;83.88;100075.28;4965307;28;19929;-81
2021/11/22 09:46:09;;;;;;;;;;;;;;;4.41;83.85;100076.16;4963725;28;20369;-88
2021/11/22 09:48:34;;;;;;;;;;;;;;;4.40;83.88;100081.41;4982801;28;19968;-90
2021/11/22 09:51:00;;;;;;;;;;;;;;;4.47;83.97;100081.31;4964735;28;19922;-85
2021/11/22 09:53:27;;;;;;;;;;;;;;;4.44;83.92;100086.59;4983183;28;19922;-86
2021/11/22 09:55:52;;;;;;;;;;;;;;;4.48;83.79;100085.69;4968026;28;19922;-86
2021/11/22 09:58:17;;;;;;;;;;;;;;;4.52;83.73;100083.88;4984941;28;19965;-84
2021/11/22 10:00:44;;;;;;;;;;;;;;;4.53;84.03;100091.75;4986712;28;19921;-89
2021/11/22 10:03:10;;;;;;;;;;;;;;;4.61;84.48;100093.38;4986216;28;19928;-90
2021/11/22 10:05:36;;;;;;;;;;;;;;;4.65;84.59;100095.06;4993425;28;19925;-85
2021/11/22 10:08:11;;;;;;;;;;;;;;;4.99;86.53;100089.34;4984208;28;19922;-89
2021/11/22 10:10:38;;;;;;;;;;;;;;;6.51;86.92;100090.97;4974120;28;19960;-84
2021/11/22 10:13:23;;;;;;;;;;;;;;;6.88;84.41;100093.69;4981367;28;20296;-87
2021/11/22 10:15:50;;;;;;;;;;;;;;;6.05;84.09;100099.81;4983565;28;19932;-82
2021/11/22 10:18:22;;;;;;;;;;;;;;;5.79;84.44;100098.50;4985207;28;19929;-87
2021/11/22 10:20:48;;;;;;;;;;;;;;;5.61;84.19;100105.81;4982077;28;19926;-84
2021/11/22 10:23:19;;;;;;;;;;;;;;;5.54;83.77;100104.22;4966985;28;19929;-87
2021/11/22 10:25:44;;;;;;;;;;;;;;;5.50;83.63;100113.03;4997239;28;19925;-86
2021/11/22 10:28:20;;;;;;;;;;;;;;;5.48;83.45;100114.84;4984218;28;19925;-86
2021/11/22 10:30:52;;;;;;;;;;;;;;;5.49;83.34;100116.56;4984655;28;20263;-88
2021/11/22 10:33:19;;;;;;;;;;;;;;;5.48;83.26;100125.34;4997784;28;19974;-84
2021/11/22 10:35:45;;;;;;;;;;;;;;;5.47;83.27;100120.97;4983045;28;19922;-83
2021/11/22 10:38:18;;;;;;;;;;;;;;;5.46;83.18;100121.88;4983966;28;19972;-85
2021/11/22 10:40:52;;;;;;;;;;;;;;;5.46;83.01;100127.13;4983674;28;19926;-83
2021/11/22 10:43:18;;;;;;;;;;;;;;;5.51;83.18;100130.56;4973502;28;20424;-88
2021/11/22 10:45:45;;;;;;;;;;;;;;;5.49;82.98;100121.84;4984874;28;19921;-83
2021/11/22 10:48:20;;;;;;;;;;;;;;;5.51;82.88;100130.56;4966577;28;19928;-84
2021/11/22 10:51:08;;;;;;;;;;;;;;;5.54;82.91;100125.25;4963916;28;20194;-88
2021/11/22 10:53:34;;;;;;;;;;;;;;;5.54;83.02;100134.91;4983482;28;19926;-84
2021/11/22 10:56:01;;;;;;;;;;;;;;;5.57;82.99;100127.81;4966535;28;20395;-88
2021/11/22 10:58:29;;;;;;;;;;;;;;;5.56;83.00;100133.97;4997735;28;19969;-86
2021/11/22 11:00:55;;;;;;;;;;;;;;;5.60;82.97;100127.78;4974312;28;20376;-85
2021/11/22 11:03:20;;;;;;;;;;;;;;;5.60;82.96;100135.66;4966006;28;19934;-88
2021/11/22 11:05:55;;;;;;;;;;;;;;;5.61;82.98;100136.50;4965397;28;19929;-83
2021/11/22 11:08:20;;;;;;;;;;;;;;;5.64;83.15;100144.34;4909710;28;2136079;-87
2021/11/22 11:10:50;;;;;;;;;;;;;;;5.66;82.97;100144.31;4966826;28;20013;-85
2021/11/22 11:13:15;;;;;;;;;;;;;;;5.64;82.83;100139.09;4966235;28;19918;-83
2021/11/22 11:15:42;;;;;;;;;;;;;;;5.66;82.66;100145.19;4983504;28;20009;-87
2021/11/22 11:18:21;;;;;;;;;;;;;;;5.68;82.66;100150.41;4984045;28;20000;-89
2021/11/22 11:20:49;;;;;;;;;;;;;;;5.70;82.70;100151.28;4979805;28;19926;-86
2021/11/22 11:23:14;;;;;;;;;;;;;;;5.71;82.61;100155.63;4966056;28;20270;-88
2021/11/22 11:25:40;;;;;;;;;;;;;;;5.73;82.75;100153.88;4983531;28;19925;-83
2021/11/22 11:28:05;;;;;;;;;;;;;;;5.70;82.62;100154.78;4966849;28;19968;-88
2021/11/22 11:30:31;;;;;;;;;;;;;;;5.74;82.70;100155.59;4983916;28;20351;-85
2021/11/22 11:32:57;;;;;;;;;;;;;;;5.75;82.75;100170.47;4965941;28;20288;-87
2021/11/22 11:35:22;;;;;;;;;;;;;;;5.76;82.60;100164.31;4982404;28;19921;-83
2021/11/22 11:38:06;;;;;;;;;;;;;;;5.78;82.78;100167.78;4965348;28;20293;-87
2021/11/22 11:40:50;;;;;;;;;;;;;;;5.80;82.83;100168.63;4983337;28;19918;-87
2021/11/22 11:43:16;;;;;;;;;;;;;;;5.80;82.74;100179.16;4984516;28;19961;-88
2021/11/22 11:45:44;;;;;;;;;;;;;;;5.80;82.74;100180.00;4966173;28;19972;-88
2021/11/22 11:48:25;;;;;;;;;;;;;;;5.80;82.73;100173.88;4967187;28;20246;-83
2021/11/22 11:50:51;;;;;;;;;;;;;;;5.82;82.66;100172.09;4983035;28;19961;-83
2021/11/22 11:53:17;;;;;;;;;;;;;;;5.86;82.90;100167.66;4997737;28;19961;-87
2021/11/22 11:55:43;;;;;;;;;;;;;;;5.89;82.90;100172.84;4997918;28;19946;-83
2021/11/22 11:58:24;;;;;;;;;;;;;;;5.88;82.88;100177.25;4982701;28;19918;-83
2021/11/22 12:00:52;;;;;;;;;;;;;;;5.92;82.97;100178.94;4973930;28;19961;-84
2021/11/22 12:03:17;;;;;;;;;;;;;;;5.93;82.91;100179.78;4983519;28;19918;-84
2021/11/22 12:05:44;;;;;;;;;;;;;;;5.94;82.95;100177.16;4964822;28;20385;-83
2021/11/22 12:08:19;;;;;;;;;;;;;;;5.93;82.89;100175.41;4965943;28;19969;-83
2021/11/22 12:10:44;;;;;;;;;;;;;;;5.95;83.01;100188.53;4983493;28;20029;-83
2021/11/22 12:13:10;;;;;;;;;;;;;;;5.98;82.93;100177.97;4984479;28;19977;-87
2021/11/22 12:15:50;;;;;;;;;;;;;;;5.98;82.99;100183.25;4982995;28;19932;-83
2021/11/22 12:18:26;;;;;;;;;;;;;;;6.00;82.98;100184.09;4980595;28;19955;-83
2021/11/22 12:21:00;;;;;;;;;;;;;;;6.00;82.88;100181.47;4964549;28;19925;-83
2021/11/22 12:23:39;;;;;;;;;;;;;;;6.00;82.83;100173.59;4982829;28;19922;-88
2021/11/22 12:26:05;;;;;;;;;;;;;;;6.03;82.85;100191.94;4996576;28;20296;-83
2021/11/22 12:28:30;;;;;;;;;;;;;;;6.06;82.90;100183.13;4965674;28;20374;-82
2021/11/22 12:31:01;;;;;;;;;;;;;;;6.04;82.75;100174.38;4973974;28;19925;-87
2021/11/22 12:33:26;;;;;;;;;;;;;;;6.03;82.89;100184.06;4982410;28;19957;-83
2021/11/22 12:36:01;;;;;;;;;;;;;;;6.08;82.75;100170.78;4980790;28;20374;-85
2021/11/22 12:38:27;;;;;;;;;;;;;;;6.10;82.90;100174.28;4964384;28;19922;-83
2021/11/22 12:40:55;;;;;;;;;;;;;;;6.10;82.47;100182.16;4963318;28;19922;-86
2021/11/22 12:43:40;;;;;;;;;;;;;;;6.12;82.52;100185.63;4981388;28;19922;-85
2021/11/22 12:46:06;;;;;;;;;;;;;;;6.15;82.49;100190.84;4972910;28;20662;-88
2021/11/22 12:48:32;;;;;;;;;;;;;;;6.15;82.38;100180.31;4963478;28;20385;-84
2021/11/22 12:50:58;;;;;;;;;;;;;;;6.21;82.42;100181.94;4971841;28;19952;-84
2021/11/22 12:53:24;;;;;;;;;;;;;;;6.29;82.70;100187.97;4982956;28;19925;-84
2021/11/22 12:55:50;;;;;;;;;;;;;;;6.38;83.17;100184.28;4979167;28;19929;-87
2021/11/22 12:58:23;;;;;;;;;;;;;;;6.39;83.69;100188.66;4988962;28;20371;-85
2021/11/22 13:00:51;;;;;;;;;;;;;;;6.43;84.24;100187.69;4977777;28;19929;-84
2021/11/22 13:03:17;;;;;;;;;;;;;;;6.46;84.72;100185.00;4979783;28;19926;-85
2021/11/22 13:05:50;;;;;;;;;;;;;;;6.41;84.98;100177.19;4977954;28;19930;-83
2021/11/22 13:08:18;;;;;;;;;;;;;;;6.39;85.35;100178.97;4980306;28;19929;-85
2021/11/22 13:10:49;;;;;;;;;;;;;;;6.30;85.19;100185.31;4979199;28;19934;-83
2021/11/22 13:13:26;;;;;;;;;;;;;;;6.14;84.95;100181.22;4987696;28;19968;-84
2021/11/22 13:15:59;;;;;;;;;;;;;;;5.92;84.74;100189.47;4980926;28;19953;-84
2021/11/22 13:18:29;;;;;;;;;;;;;;;5.74;84.57;100193.25;4979109;28;20374;-84
2021/11/22 13:20:55;;;;;;;;;;;;;;;5.54;84.81;100201.47;4978210;28;19925;-85
2021/11/22 13:23:23;;;;;;;;;;;;;;;5.44;85.85;100194.59;4980522;28;19922;-84
2021/11/22 13:25:48;;;;;;;;;;;;;;;5.46;88.05;100195.47;4980803;28;19956;-88
2021/11/22 13:28:16;;;;;;;;;;;;;;;5.58;90.54;100204.91;4981410;28;19969;-84
2021/11/22 13:30:41;;;;;;;;;;;;;;;5.73;93.51;100204.69;4984063;28;19989;-87
2021/11/22 13:33:07;;;;;;;;;;;;;;;5.91;96.75;100203.50;4984708;28;19921;-87
2021/11/22 13:35:33;;;;;;;;;;;;;;;6.16;99.62;100208.38;4984975;28;20377;-85
2021/11/22 13:38:14;;;;;;;;;;;;;;;6.31;100.00;100208.06;4984802;28;19918;-88
2021/11/22 13:40:40;;;;;;;;;;;;;;;6.46;100.00;100211.31;4986257;28;19918;-87
2021/11/22 13:43:06;;;;;;;;;;;;;;;6.51;100.00;100215.59;4986208;28;20353;-87
2021/11/22 13:45:32;;;;;;;;;;;;;;;6.59;100.00;100207.56;4983890;28;19918;-84
2021/11/22 13:47:57;;;;;;;;;;;;;;;6.67;100.00;100213.53;4984489;28;20037;-84
2021/11/22 13:50:22;;;;;;;;;;;;;;;6.69;100.00;100219.63;4983865;28;19922;-84
2021/11/22 13:52:47;;;;;;;;;;;;;;;6.76;100.00;100224.78;4982915;28;19925;-84
2021/11/22 13:55:13;;;;;;;;;;;;;;;6.79;100.00;100232.63;4986130;28;19926;-87
2021/11/22 13:57:38;;;;;;;;;;;;;;;6.84;100.00;100233.41;4987686;28;19918;-86
2021/11/22 14:00:04;;;;;;;;;;;;;;;6.85;100.00;100237.78;4984854;28;19925;-84
2021/11/22 14:02:30;;;;;;;;;;;;;;;6.87;100.00;100234.19;4984468;28;20330;-85
2021/11/22 14:04:58;;;;;;;;;;;;;;;6.94;100.00;100239.34;4984260;28;19925;-84
2021/11/22 14:07:26;;;;;;;;;;;;;;;6.94;100.00;100239.34;4981999;28;19937;-86
2021/11/22 14:09:54;;;;;;;;;;;;;;;6.95;100.00;100244.56;4984458;28;20384;-84
2021/11/22 14:12:34;;;;;;;;;;;;;;;6.99;100.00;100245.38;4983582;28;19976;-84
2021/11/22 14:15:00;;;;;;;;;;;;;;;7.00;100.00;100250.59;4985330;28;19921;-85
2021/11/22 14:17:25;;;;;;;;;;;;;;;7.02;100.00;100248.84;4983771;28;19944;-87
2021/11/22 14:20:10;;;;;;;;;;;;;;;7.06;100.00;100261.03;4984219;28;19968;-87
2021/11/22 14:22:43;;;;;;;;;;;;;;;7.08;100.00;100259.25;4983218;28;19933;-84
2021/11/22 14:25:17;;;;;;;;;;;;;;;7.06;100.00;100261.03;4983635;28;19925;-85
2021/11/22 14:27:43;;;;;;;;;;;;;;;5.72;100.00;100265.19;4982465;28;19917;-87
2021/11/22 14:30:09;;;;;;;;;;;;;;;4.59;100.00;100273.63;4979765;28;21698;-84
2021/11/22 14:32:36;;;;;;;;;;;;;;;4.24;99.27;100277.47;4983570;28;20393;-84
2021/11/22 14:35:10;;;;;;;;;;;;;;;3.95;96.07;100276.84;4985017;28;19923;-87
2021/11/22 14:37:35;;;;;;;;;;;;;;;3.73;93.60;100281.34;4983760;28;19923;-86
2021/11/22 14:40:01;;;;;;;;;;;;;;;3.62;91.67;100286.69;4979255;28;19925;-85
2021/11/22 14:42:26;;;;;;;;;;;;;;;3.51;89.93;100279.75;4982198;28;20397;-84
2021/11/22 14:44:52;;;;;;;;;;;;;;;3.33;88.26;100286.00;4983957;28;19918;-84
2021/11/22 14:47:44;;;;;;;;;;;;;;;3.17;87.04;100293.06;4983234;28;20019;-84
2021/11/22 14:50:15;;;;;;;;;;;;;;;3.04;86.40;100290.47;4982051;28;20247;-85
2021/11/22 14:52:41;;;;;;;;;;;;;;;2.97;85.92;100299.25;4999437;28;19922;-84
2021/11/22 14:55:16;;;;;;;;;;;;;;;2.85;85.33;100288.81;4982681;28;20297;-85
2021/11/22 14:57:47;;;;;;;;;;;;;;;2.75;84.91;100302.81;4982720;28;19925;-85
2021/11/22 15:00:21;;;;;;;;;;;;;;;2.66;84.33;100307.16;4983619;28;19925;-85
2021/11/22 15:02:49;;;;;;;;;;;;;;;2.59;84.43;100305.44;4982704;28;20373;-88
2021/11/22 15:05:30;;;;;;;;;;;;;;;2.47;83.89;100305.47;4981910;28;20020;-85
2021/11/22 15:07:56;;;;;;;;;;;;;;;2.42;83.55;100313.31;4983540;28;19928;-88
2021/11/22 15:10:21;;;;;;;;;;;;;;;2.34;82.80;100310.69;4984135;28;20297;-87
2021/11/22 15:12:46;;;;;;;;;;;;;;;2.25;82.95;100321.19;4984258;28;19931;-87
2021/11/22 15:15:14;;;;;;;;;;;;;;;2.52;85.44;100325.53;4981300;28;19928;-85
2021/11/22 15:17:40;;;;;;;;;;;;;;;2.86;90.12;100324.59;4981051;28;19932;-84
2021/11/22 15:20:07;;;;;;;;;;;;;;;3.00;93.21;100321.91;4982501;28;19918;-84
2021/11/22 15:22:34;;;;;;;;;;;;;;;3.13;95.34;100331.47;4980197;28;20049;-88
2021/11/22 15:25:00;;;;;;;;;;;;;;;3.24;96.34;100334.94;4980532;28;19922;-86
2021/11/22 15:27:26;;;;;;;;;;;;;;;3.34;97.30;100330.50;4983300;28;19926;-84
2021/11/22 15:29:56;;;;;;;;;;;;;;;3.28;97.99;100335.78;4982446;28;19979;-84
2021/11/22 15:32:23;;;;;;;;;;;;;;;3.34;98.42;100340.13;4990084;28;19977;-84
2021/11/22 15:34:48;;;;;;;;;;;;;;;3.27;98.78;100339.25;4983049;28;19925;-84
2021/11/22 15:37:14;;;;;;;;;;;;;;;3.26;99.03;100342.78;4981553;28;20289;-84
2021/11/22 15:39:41;;;;;;;;;;;;;;;3.40;98.92;100342.72;4981818;28;19922;-83
2021/11/22 15:42:08;;;;;;;;;;;;;;;3.37;98.74;100345.38;4990086;28;19922;-87
2021/11/22 15:44:33;;;;;;;;;;;;;;;3.35;98.81;100341.84;4982526;28;19918;-84
2021/11/22 15:46:59;;;;;;;;;;;;;;;3.29;98.28;100350.63;4980981;28;20400;-85
2021/11/22 15:49:25;;;;;;;;;;;;;;;3.37;98.14;100356.69;4979484;28;19922;-85
2021/11/22 15:51:50;;;;;;;;;;;;;;;3.38;97.42;100353.22;4978180;28;20385;-85
2021/11/22 15:54:16;;;;;;;;;;;;;;;3.37;96.63;100358.47;4983600;28;19940;-84
2021/11/22 15:56:42;;;;;;;;;;;;;;;3.43;96.06;100368.88;4983248;28;19925;-84
2021/11/22 15:59:09;;;;;;;;;;;;;;;3.39;95.25;100373.28;4981966;28;19918;-85
2021/11/22 16:01:35;;;;;;;;;;;;;;;3.36;94.38;100375.91;4979982;28;20360;-84
2021/11/22 16:04:03;;;;;;;;;;;;;;;3.43;93.46;100371.50;4979988;28;19929;-84
2021/11/22 16:06:29;;;;;;;;;;;;;;;3.43;92.52;100375.03;4979614;28;19931;-83
2021/11/22 16:08:54;;;;;;;;;;;;;;;3.38;91.34;100381.13;4975863;28;19926;-85
2021/11/22 16:11:19;;;;;;;;;;;;;;;3.34;90.37;100380.28;4978269;28;19948;-84
2021/11/22 16:13:45;;;;;;;;;;;;;;;3.39;89.51;100385.50;4982010;28;19926;-85
2021/11/22 16:16:10;;;;;;;;;;;;;;;3.36;88.37;100383.75;4980972;28;19925;-84
2021/11/22 16:18:35;;;;;;;;;;;;;;;3.32;87.74;100389.91;4982222;28;19939;-86
2021/11/22 16:21:01;;;;;;;;;;;;;;;3.38;87.18;100386.38;4981736;28;19933;-85
2021/11/22 16:23:26;;;;;;;;;;;;;;;3.37;86.73;100382.03;4981539;28;20348;-86
2021/11/22 16:25:52;;;;;;;;;;;;;;;3.44;86.39;100394.22;4982907;28;19918;-84
2021/11/22 16:28:17;;;;;;;;;;;;;;;3.39;86.04;100396.84;4982808;28;19922;-85
2021/11/22 16:30:43;;;;;;;;;;;;;;;3.39;85.58;100396.00;4982107;28;19921;-86
2021/11/22 16:33:08;;;;;;;;;;;;;;;3.39;85.18;100396.00;4981951;28;20304;-86
2021/11/22 16:35:33;;;;;;;;;;;;;;;3.35;84.71;100400.38;4995294;28;19930;-83
2021/11/22 16:37:58;;;;;;;;;;;;;;;3.64;84.50;100402.88;4981315;28;20007;-85
2021/11/22 16:40:25;;;;;;;;;;;;;;;3.48;84.16;100395.06;4983271;28;19925;-86
2021/11/22 16:42:52;;;;;;;;;;;;;;;3.45;84.06;100409.94;4981415;28;19919;-85
2021/11/22 16:45:17;;;;;;;;;;;;;;;3.39;83.81;100412.56;4978489;28;19929;-84
2021/11/22 16:47:42;;;;;;;;;;;;;;;3.36;83.70;100417.81;4980394;28;20283;-85
2021/11/22 16:50:08;;;;;;;;;;;;;;;3.37;83.25;100421.34;4982838;28;19918;-83
2021/11/22 16:52:38;;;;;;;;;;;;;;;3.37;83.18;100430.06;4980627;28;19973;-84
2021/11/22 16:55:03;;;;;;;;;;;;;;;3.35;83.16;100437.06;4981825;28;19921;-83
2021/11/22 16:57:31;;;;;;;;;;;;;;;3.38;83.01;100442.28;4981081;28;19972;-86
2021/11/22 16:59:56;;;;;;;;;;;;;;;3.40;82.76;100442.28;4980545;28;19972;-83
2021/11/22 17:02:23;;;;;;;;;;;;;;;3.34;82.71;100447.53;4981385;28;19918;-84
2021/11/22 17:04:48;;;;;;;;;;;;;;;3.34;82.26;100448.41;4986345;28;19922;-88
2021/11/22 17:07:13;;;;;;;;;;;;;;;3.35;82.14;100442.28;4986405;28;19922;-87
2021/11/22 17:09:39;;;;;;;;;;;;;;;3.31;82.04;100455.41;4985527;28;19925;-84
2021/11/22 17:12:05;;;;;;;;;;;;;;;3.34;81.75;100456.25;4985021;28;19926;-83
2021/11/22 17:14:31;;;;;;;;;;;;;;;3.34;81.71;100461.50;4985412;28;20008;-83
2021/11/22 17:16:56;;;;;;;;;;;;;;;3.34;81.64;100455.41;4984441;28;20057;-87
2021/11/22 17:19:22;;;;;;;;;;;;;;;3.31;81.28;100461.50;4983657;28;19926;-84
2021/11/22 17:21:49;;;;;;;;;;;;;;;3.32;81.22;100458.03;4980561;28;19918;-84
2021/11/22 17:24:17;;;;;;;;;;;;;;;3.33;81.12;100461.50;4984857;28;19922;-87
2021/11/22 17:26:43;;;;;;;;;;;;;;;3.32;81.11;100471.13;4985078;28;19937;-85
2021/11/22 17:29:08;;;;;;;;;;;;;;;3.33;80.88;100469.34;4985448;28;19918;-84
2021/11/22 17:31:34;;;;;;;;;;;;;;;3.32;80.93;100478.97;4986162;28;19929;-86
2021/11/22 17:34:00;;;;;;;;;;;;;;;3.32;80.82;100470.22;4985993;28;19924;-84
2021/11/22 17:36:26;;;;;;;;;;;;;;;3.28;80.57;100471.97;4983498;28;20357;-85
2021/11/22 17:38:51;;;;;;;;;;;;;;;3.30;80.48;100477.22;4985067;28;19932;-85
2021/11/22 17:41:17;;;;;;;;;;;;;;;3.32;80.41;100478.97;4984600;28;19973;-85
2021/11/22 17:43:42;;;;;;;;;;;;;;;3.30;80.14;100482.47;4985710;28;19918;-86
2021/11/22 17:46:07;;;;;;;;;;;;;;;3.30;79.87;100482.47;4986387;28;20012;-84
2021/11/22 17:48:32;;;;;;;;;;;;;;;3.26;79.69;100489.47;4984104;28;19918;-85
2021/11/22 17:50:58;;;;;;;;;;;;;;;3.26;79.68;100494.69;4980786;28;19918;-84
2021/11/22 17:53:24;;;;;;;;;;;;;;;3.28;79.59;100488.56;4984848;28;19927;-87
2021/11/22 17:55:51;;;;;;;;;;;;;;;3.26;79.50;100492.09;4984681;28;19965;-86
2021/11/22 17:58:19;;;;;;;;;;;;;;;3.31;79.42;100497.31;4980173;28;19925;-83
2021/11/22 18:00:45;;;;;;;;;;;;;;;3.25;79.47;100495.56;4984434;28;20266;-86
2021/11/22 18:03:10;;;;;;;;;;;;;;;3.28;79.34;100492.94;4979458;28;19925;-87
2021/11/22 18:05:36;;;;;;;;;;;;;;;3.24;79.17;100499.94;4980085;28;20005;-87
2021/11/22 18:08:01;;;;;;;;;;;;;;;3.28;78.95;100506.91;4983971;28;20021;-87
2021/11/22 18:10:26;;;;;;;;;;;;;;;3.29;78.94;100510.41;4981300;28;19918;-84
2021/11/22 18:12:51;;;;;;;;;;;;;;;3.28;78.77;100504.28;4984738;28;19926;-84
2021/11/22 18:15:18;;;;;;;;;;;;;;;3.27;78.66;100505.19;4984057;28;19922;-85
2021/11/22 18:17:43;;;;;;;;;;;;;;;3.26;78.44;100507.78;4984036;28;20049;-85
2021/11/22 18:20:09;;;;;;;;;;;;;;;3.28;78.40;100520.00;4985252;28;19929;-87
2021/11/22 18:22:36;;;;;;;;;;;;;;;3.27;78.32;100515.66;4983727;28;19925;-83
2021/11/22 18:25:01;;;;;;;;;;;;;;;3.28;78.25;100513.91;4983801;28;20431;-84
2021/11/22 18:27:26;;;;;;;;;;;;;;;3.32;78.28;100509.53;4984670;28;20009;-83
2021/11/22 18:29:52;;;;;;;;;;;;;;;3.36;78.24;100511.28;4983887;28;19924;-85
2021/11/22 18:32:17;;;;;;;;;;;;;;;3.34;78.02;100507.78;4983806;28;19961;-83
2021/11/22 18:34:43;;;;;;;;;;;;;;;3.30;77.83;100506.91;4984257;28;20472;-86
2021/11/22 18:37:08;;;;;;;;;;;;;;;3.31;77.73;100513.91;4982634;28;19954;-83
2021/11/22 18:39:34;;;;;;;;;;;;;;;3.27;77.50;100518.28;4985657;28;20399;-86
2021/11/22 18:41:59;;;;;;;;;;;;;;;3.29;77.28;100520.88;4992129;28;19918;-85
2021/11/22 18:44:25;;;;;;;;;;;;;;;3.30;77.20;100516.50;4983337;28;19953;-86
2021/11/22 18:46:50;;;;;;;;;;;;;;;3.30;77.11;100522.63;4983963;28;19917;-85
2021/11/22 18:49:16;;;;;;;;;;;;;;;3.27;76.80;100523.50;4983322;28;19966;-83
2021/11/22 18:51:41;;;;;;;;;;;;;;;3.31;76.88;100523.50;4981655;28;19919;-88
2021/11/22 18:54:06;;;;;;;;;;;;;;;3.29;76.85;100526.13;4980833;28;19936;-88
2021/11/22 18:56:32;;;;;;;;;;;;;;;3.31;76.84;100528.75;4984171;28;19965;-88
2021/11/22 18:58:57;;;;;;;;;;;;;;;3.29;76.66;100534.00;4984649;28;19925;-85
2021/11/22 19:01:23;;;;;;;;;;;;;;;3.31;76.58;100536.59;4984434;28;19949;-89
2021/11/22 19:03:48;;;;;;;;;;;;;;;3.31;76.40;100537.47;4983211;28;20012;-86
2021/11/22 19:06:14;;;;;;;;;;;;;;;3.30;76.54;100540.94;4981560;28;19922;-84
2021/11/22 19:08:39;;;;;;;;;;;;;;;3.28;76.29;100540.94;4984252;28;19921;-85
2021/11/22 19:11:04;;;;;;;;;;;;;;;3.30;76.17;100547.94;4984515;28;19924;-83
2021/11/22 19:13:30;;;;;;;;;;;;;;;3.28;76.11;100551.44;4982892;28;19925;-83
2021/11/22 19:15:56;;;;;;;;;;;;;;;3.29;76.13;100554.94;4982628;28;19924;-83
2021/11/22 19:18:21;;;;;;;;;;;;;;;3.29;75.89;100557.56;4982905;28;19925;-82
2021/11/22 19:20:47;;;;;;;;;;;;;;;3.36;75.92;100563.66;4981391;28;20305;-86
2021/11/22 19:23:17;;;;;;;;;;;;;;;3.30;75.73;100564.53;4982697;28;20381;-83
2021/11/22 19:25:42;;;;;;;;;;;;;;;3.35;75.92;100562.81;4982548;28;19925;-83
2021/11/22 19:28:08;;;;;;;;;;;;;;;3.34;75.80;100565.41;4983021;28;19918;-88
2021/11/22 19:30:33;;;;;;;;;;;;;;;3.33;75.74;100564.53;4990688;28;20416;-85
2021/11/22 19:32:59;;;;;;;;;;;;;;;3.32;75.65;100562.81;4982961;28;19922;-84
2021/11/22 19:35:24;;;;;;;;;;;;;;;3.35;75.43;100561.91;4981048;28;20001;-84
2021/11/22 19:37:50;;;;;;;;;;;;;;;3.34;75.19;100568.03;4984100;28;20020;-85
2021/11/22 19:40:15;;;;;;;;;;;;;;;3.33;75.13;100564.53;4983920;28;19929;-86
2021/11/22 19:42:41;;;;;;;;;;;;;;;3.35;74.99;100569.78;4982847;28;19951;-85
2021/11/22 19:45:06;;;;;;;;;;;;;;;3.34;74.97;100570.66;4982784;28;20365;-84
2021/11/22 19:47:32;;;;;;;;;;;;;;;3.36;74.82;100574.16;4982548;28;19922;-85
2021/11/22 19:49:57;;;;;;;;;;;;;;;3.36;74.77;100577.63;4981286;28;19924;-83
2021/11/22 19:52:22;;;;;;;;;;;;;;;3.39;74.77;100577.63;4980972;28;20356;-82
2021/11/22 19:54:48;;;;;;;;;;;;;;;3.40;74.76;100576.75;4982719;28;19918;-84
2021/11/22 19:57:13;;;;;;;;;;;;;;;3.40;74.61;100582.00;4982406;28;19926;-84
2021/11/22 19:59:39;;;;;;;;;;;;;;;3.42;74.55;100582.00;4982344;28;19965;-84
2021/11/22 20:02:04;;;;;;;;;;;;;;;3.40;74.37;100579.38;4981990;28;19922;-84
2021/11/22 20:04:29;;;;;;;;;;;;;;;3.39;74.27;100577.63;4982363;28;20293;-83
2021/11/22 20:06:55;;;;;;;;;;;;;;;3.42;74.16;100582.88;4982353;28;19922;-84
2021/11/22 20:09:21;;;;;;;;;;;;;;;3.40;74.03;100582.00;4983124;28;19977;-83
2021/11/22 20:11:46;;;;;;;;;;;;;;;3.43;73.90;100592.47;4983081;28;19917;-83
2021/11/22 20:14:12;;;;;;;;;;;;;;;3.42;73.81;100595.09;4982086;28;19929;-87
2021/11/22 20:16:38;;;;;;;;;;;;;;;3.44;73.60;100599.44;4989532;28;19925;-86
2021/11/22 20:19:04;;;;;;;;;;;;;;;3.45;73.56;100606.44;4983451;28;20384;-83
2021/11/22 20:21:31;;;;;;;;;;;;;;;3.48;73.55;100608.22;4980868;28;19925;-84
2021/11/22 20:23:56;;;;;;;;;;;;;;;3.48;73.36;100604.69;4981776;28;19970;-83
2021/11/22 20:26:24;;;;;;;;;;;;;;;3.45;73.27;100609.06;4982127;28;19922;-83
2021/11/22 20:28:52;;;;;;;;;;;;;;;3.51;73.37;100615.16;4989425;28;20381;-83